Time;durP1;ratioP1;P1;durP2;ratioP2;P2;SDS_P1;SDS_P2;PMS_P1;PMS_P2;Temp;Humidity;BMP_temperature;BMP_pressure;BME280_temperature;BME280_humidity;BME280_pressure;Samples;Min_cycle;Max_cycle;Signal;HPM_P1;HPM_P2
2021/08/17 00:00:56;;;;;;;24.27;10.27;;;16.10;99.90;;;;;;5033089;28;20025;-79
2021/08/17 00:03:23;;;;;;;27.45;9.80;;;16.00;99.90;;;;;;5033999;28;20388;-79
2021/08/17 00:05:49;;;;;;;19.00;10.05;;;16.00;99.90;;;;;;5032316;28;20022;-79
2021/08/17 00:08:15;;;;;;;23.15;9.77;;;16.00;99.90;;;;;;5033370;28;20033;-79
2021/08/17 00:10:41;;;;;;;26.42;10.13;;;15.90;99.90;;;;;;5031972;28;20113;-79
2021/08/17 00:13:07;;;;;;;24.08;10.40;;;15.90;99.90;;;;;;5029334;28;20471;-79
2021/08/17 00:15:36;;;;;;;21.25;10.32;;;15.80;99.90;;;;;;5012071;28;20138;-79
2021/08/17 00:18:02;;;;;;;23.77;10.65;;;15.80;99.90;;;;;;5012756;28;20389;-79
2021/08/17 00:20:28;;;;;;;24.58;10.73;;;15.70;99.90;;;;;;5013801;28;20076;-79
2021/08/17 00:22:54;;;;;;;27.33;10.63;;;15.70;99.90;;;;;;5031368;28;20025;-79
2021/08/17 00:25:19;;;;;;;24.40;11.43;;;15.60;99.90;;;;;;5030999;28;20060;-79
2021/08/17 00:27:45;;;;;;;22.52;11.13;;;15.60;99.90;;;;;;5017356;28;20072;-79
2021/08/17 00:30:11;;;;;;;22.67;11.68;;;15.50;99.90;;;;;;5012734;28;20058;-79
2021/08/17 00:32:37;;;;;;;23.00;10.52;;;15.50;99.90;;;;;;5013537;28;20034;-79
2021/08/17 00:35:04;;;;;;;24.63;11.88;;;15.40;99.90;;;;;;5011224;28;20022;-79
2021/08/17 00:37:30;;;;;;;24.92;11.63;;;15.40;99.90;;;;;;5014801;28;20045;-79
2021/08/17 00:39:57;;;;;;;22.67;10.98;;;15.40;99.90;;;;;;5009997;28;20048;-79
2021/08/17 00:42:23;;;;;;;23.25;11.55;;;15.30;99.90;;;;;;5022141;28;20029;-79
2021/08/17 00:44:49;;;;;;;25.60;12.02;;;15.30;99.90;;;;;;5031621;28;20045;-79
2021/08/17 00:47:16;;;;;;;21.70;11.95;;;15.20;99.90;;;;;;5033244;28;20044;-79
2021/08/17 00:49:42;;;;;;;24.10;12.10;;;15.20;99.90;;;;;;5029209;28;20091;-79
2021/08/17 00:52:10;;;;;;;23.58;11.52;;;15.10;99.90;;;;;;5026314;28;20033;-79
2021/08/17 00:54:40;;;;;;;24.35;11.95;;;15.10;99.90;;;;;;5030619;28;20036;-79
2021/08/17 00:57:06;;;;;;;30.13;12.68;;;15.10;99.90;;;;;;5032430;28;20040;-79
2021/08/17 00:59:32;;;;;;;24.90;12.18;;;15.00;99.90;;;;;;5032915;28;20014;-80
2021/08/17 01:01:58;;;;;;;27.55;12.77;;;15.00;99.90;;;;;;5030620;28;20029;-79
2021/08/17 01:04:24;;;;;;;27.90;12.40;;;15.00;99.90;;;;;;5031908;28;20030;-79
2021/08/17 01:06:49;;;;;;;26.98;13.45;;;15.00;99.90;;;;;;5032414;28;20378;-79
2021/08/17 01:09:15;;;;;;;26.67;12.40;;;15.00;99.90;;;;;;5031182;28;20105;-79
2021/08/17 01:11:48;;;;;;;26.10;12.77;;;15.00;99.90;;;;;;5032318;28;20028;-79
2021/08/17 01:14:23;;;;;;;;;;;15.00;99.90;;;;;;5030165;28;20033;-78
2021/08/17 01:16:49;;;;;;;27.27;12.98;;;15.00;99.90;;;;;;5046993;28;19921;-79
2021/08/17 01:19:19;;;;;;;25.25;12.75;;;15.10;99.90;;;;;;5031899;28;20036;-79
2021/08/17 01:21:45;;;;;;;30.23;13.00;;;15.10;99.90;;;;;;5029355;28;20041;-79
2021/08/17 01:24:11;;;;;;;29.33;12.63;;;15.20;99.90;;;;;;5030826;28;20030;-79
2021/08/17 01:26:37;;;;;;;29.52;12.75;;;15.20;99.90;;;;;;5033505;28;20028;-79
2021/08/17 01:29:03;;;;;;;23.10;12.18;;;15.20;99.90;;;;;;5032977;28;20100;-79
2021/08/17 01:31:30;;;;;;;23.08;12.70;;;15.20;99.90;;;;;;5032131;28;20451;-79
2021/08/17 01:33:56;;;;;;;30.25;13.00;;;15.20;99.90;;;;;;5032515;28;20030;-79
2021/08/17 01:36:21;;;;;;;21.90;11.60;;;15.20;99.90;;;;;;5029190;28;20033;-79
2021/08/17 01:38:49;;;;;;;27.83;12.98;;;15.20;99.90;;;;;;5032682;28;20034;-79
2021/08/17 01:41:15;;;;;;;26.42;13.35;;;15.30;99.90;;;;;;5030055;28;20513;-79
2021/08/17 01:43:44;;;;;;;24.00;11.77;;;15.30;99.90;;;;;;5016880;28;20030;-79
2021/08/17 01:46:11;;;;;;;26.40;12.02;;;15.30;99.90;;;;;;5031053;28;20524;-79
2021/08/17 01:48:38;;;;;;;23.02;11.80;;;15.40;99.90;;;;;;5030874;28;20127;-79
2021/08/17 01:51:05;;;;;;;22.13;11.57;;;15.40;99.90;;;;;;5021324;28;20026;-79
2021/08/17 01:53:32;;;;;;;20.75;11.70;;;15.40;99.90;;;;;;5032148;28;20037;-79
2021/08/17 01:56:04;;;;;;;24.17;11.55;;;15.50;99.90;;;;;;5029626;28;20108;-79
2021/08/17 01:58:30;;;;;;;21.98;11.88;;;15.50;99.90;;;;;;5031163;28;20076;-79
2021/08/17 02:00:55;;;;;;;19.73;11.05;;;15.50;99.90;;;;;;5031359;28;20022;-79
2021/08/17 02:03:21;;;;;;;20.65;11.68;;;15.50;99.90;;;;;;5029615;28;20030;-79
2021/08/17 02:05:46;;;;;;;24.08;10.75;;;15.50;99.90;;;;;;5032234;28;20447;-79
2021/08/17 02:08:12;;;;;;;26.30;11.95;;;15.50;99.90;;;;;;5031364;28;20033;-79
2021/08/17 02:10:38;;;;;;;23.98;11.25;;;15.60;99.90;;;;;;5029685;28;20025;-79
2021/08/17 02:13:04;;;;;;;19.55;10.63;;;15.60;99.90;;;;;;5030764;28;20032;-78
2021/08/17 02:15:31;;;;;;;22.33;10.85;;;15.60;99.90;;;;;;5033278;28;20369;-79
2021/08/17 02:17:58;;;;;;;28.52;10.68;;;15.60;99.90;;;;;;5033153;28;20030;-79
2021/08/17 02:20:23;;;;;;;20.85;11.50;;;15.60;99.90;;;;;;5032031;28;20025;-79
2021/08/17 02:22:49;;;;;;;29.13;11.02;;;15.60;99.90;;;;;;5034232;28;20026;-79
2021/08/17 02:25:16;;;;;;;22.52;10.68;;;15.60;99.90;;;;;;5034009;28;20105;-79
2021/08/17 02:27:41;;;;;;;17.65;10.15;;;15.60;99.90;;;;;;5027952;28;20060;-79
2021/08/17 02:30:08;;;;;;;22.48;10.35;;;15.60;99.90;;;;;;5034621;28;20021;-79
2021/08/17 02:32:33;;;;;;;18.10;10.38;;;15.60;99.90;;;;;;5034296;28;20029;-79
2021/08/17 02:35:00;;;;;;;20.92;9.90;;;15.60;99.90;;;;;;5033585;28;20025;-79
2021/08/17 02:37:26;;;;;;;18.77;10.40;;;15.70;99.90;;;;;;5033850;28;20029;-79
2021/08/17 02:39:52;;;;;;;23.65;10.48;;;15.70;99.90;;;;;;5032756;28;20480;-79
2021/08/17 02:42:18;;;;;;;20.73;9.50;;;15.70;99.90;;;;;;5033281;28;20492;-79
2021/08/17 02:44:44;;;;;;;23.52;10.40;;;15.70;99.90;;;;;;5034795;28;20103;-79
2021/08/17 02:47:09;;;;;;;21.38;10.18;;;15.70;99.90;;;;;;5033681;28;20092;-79
2021/08/17 02:49:36;;;;;;;17.35;9.60;;;15.70;99.90;;;;;;5034271;28;20013;-79
2021/08/17 02:52:06;;;;;;;19.00;10.05;;;15.70;99.90;;;;;;5032793;28;20040;-79
2021/08/17 02:54:36;;;;;;;16.95;9.68;;;15.70;99.90;;;;;;5035318;28;20030;-79
2021/08/17 02:57:03;;;;;;;19.83;9.95;;;15.70;99.90;;;;;;5034341;28;20057;-79
2021/08/17 02:59:29;;;;;;;17.65;9.43;;;15.70;99.90;;;;;;5033273;28;20021;-79
2021/08/17 03:01:55;;;;;;;16.95;9.52;;;15.70;99.90;;;;;;5034719;28;20064;-79
2021/08/17 03:04:20;;;;;;;23.50;9.32;;;15.70;99.90;;;;;;5034975;28;20443;-79
2021/08/17 03:06:46;;;;;;;18.30;8.68;;;15.70;99.90;;;;;;5031761;28;20037;-79
2021/08/17 03:09:11;;;;;;;20.63;9.30;;;15.70;99.90;;;;;;5033633;28;20025;-79
2021/08/17 03:11:37;;;;;;;17.08;9.40;;;15.70;99.90;;;;;;5032881;28;20022;-79
2021/08/17 03:14:04;;;;;;;13.77;8.40;;;15.80;99.90;;;;;;5030814;28;20818;-79
2021/08/17 03:16:30;;;;;;;18.65;9.18;;;15.80;99.90;;;;;;5034033;28;20400;-79
2021/08/17 03:18:56;;;;;;;16.20;9.30;;;15.70;99.90;;;;;;5033905;28;20029;-79
2021/08/17 03:21:22;;;;;;;19.60;8.45;;;15.70;99.90;;;;;;5031832;28;20032;-79
2021/08/17 03:23:48;;;;;;;17.98;9.02;;;15.80;99.90;;;;;;5034120;28;20393;-79
2021/08/17 03:26:13;;;;;;;20.20;10.00;;;15.70;99.90;;;;;;5033179;28;20446;-79
2021/08/17 03:28:39;;;;;;;19.77;9.02;;;15.70;99.90;;;;;;5032033;28;20036;-79
2021/08/17 03:31:05;;;;;;;17.17;8.05;;;15.70;99.90;;;;;;5033373;28;20467;-79
2021/08/17 03:33:32;;;;;;;16.45;8.88;;;15.70;99.90;;;;;;5034057;28;20029;-79
2021/08/17 03:35:58;;;;;;;16.83;8.98;;;15.70;99.90;;;;;;5032661;28;20124;-79
2021/08/17 03:38:24;;;;;;;20.27;9.32;;;15.60;99.90;;;;;;5035072;28;20028;-79
2021/08/17 03:40:49;;;;;;;19.58;8.25;;;15.60;99.90;;;;;;5033887;28;20385;-79
2021/08/17 03:43:15;;;;;;;13.50;7.88;;;15.60;99.90;;;;;;5015796;28;20400;-79
2021/08/17 03:45:41;;;;;;;15.25;8.70;;;15.50;99.90;;;;;;5025363;28;20061;-79
2021/08/17 03:48:07;;;;;;;19.08;8.05;;;15.60;99.90;;;;;;5034566;28;20029;-79
2021/08/17 03:50:33;;;;;;;13.70;7.82;;;15.60;99.90;;;;;;5022245;28;20038;-78
2021/08/17 03:52:58;;;;;;;15.23;8.32;;;15.60;99.90;;;;;;5033637;28;20545;-79
2021/08/17 03:55:24;;;;;;;18.05;8.05;;;15.60;99.90;;;;;;5030978;28;20080;-79
2021/08/17 03:57:50;;;;;;;15.70;7.13;;;15.60;99.90;;;;;;5032806;28;20060;-79
2021/08/17 04:00:25;;;;;;;15.45;7.45;;;15.60;99.90;;;;;;5032693;28;20491;-79
2021/08/17 04:02:51;;;;;;;16.20;7.80;;;15.60;99.90;;;;;;5033254;28;20017;-79
2021/08/17 04:05:16;;;;;;;19.00;7.68;;;15.60;99.90;;;;;;5033587;28;20074;-79
2021/08/17 04:07:42;;;;;;;16.52;7.57;;;15.60;99.90;;;;;;5032475;28;20026;-79
2021/08/17 04:10:08;;;;;;;14.32;7.45;;;15.60;99.90;;;;;;5028810;28;20375;-79
2021/08/17 04:12:34;;;;;;;17.33;8.30;;;15.60;99.90;;;;;;5032084;28;20084;-78
2021/08/17 04:15:00;;;;;;;14.15;7.55;;;15.60;99.90;;;;;;5032220;28;20029;-79
2021/08/17 04:17:25;;;;;;;13.63;7.05;;;15.60;99.90;;;;;;5032166;28;20048;-79
2021/08/17 04:19:51;;;;;;;17.40;6.78;;;15.60;99.90;;;;;;5031523;28;20036;-79
2021/08/17 04:22:17;;;;;;;11.60;6.70;;;15.60;99.90;;;;;;5031063;28;20035;-79
2021/08/17 04:24:42;;;;;;;17.67;6.78;;;15.50;99.90;;;;;;5030682;28;20029;-79
2021/08/17 04:27:08;;;;;;;11.25;6.95;;;15.60;99.90;;;;;;5031763;28;20412;-79
2021/08/17 04:29:36;;;;;;;14.20;6.80;;;15.60;99.90;;;;;;5032320;28;20059;-79
2021/08/17 04:32:02;;;;;;;19.05;7.47;;;15.50;99.90;;;;;;5033077;28;20069;-79
2021/08/17 04:34:28;;;;;;;16.70;7.38;;;15.50;99.90;;;;;;5031096;28;20120;-79
2021/08/17 04:36:54;;;;;;;12.85;6.35;;;15.50;99.90;;;;;;5030498;28;20112;-79
2021/08/17 04:39:19;;;;;;;15.32;7.10;;;15.50;99.90;;;;;;5030381;28;20160;-79
2021/08/17 04:41:45;;;;;;;11.48;6.60;;;15.40;99.90;;;;;;5031205;28;20025;-80
2021/08/17 04:44:10;;;;;;;11.70;6.50;;;15.40;99.90;;;;;;5030417;28;20045;-79
2021/08/17 04:46:36;;;;;;;15.52;6.35;;;15.40;99.90;;;;;;5017603;28;20530;-80
2021/08/17 04:49:02;;;;;;;9.55;5.82;;;15.40;99.90;;;;;;5029529;28;20039;-82
2021/08/17 04:51:27;;;;;;;18.42;7.15;;;15.40;99.90;;;;;;5020996;28;20040;-80
2021/08/17 04:53:54;;;;;;;14.05;7.05;;;15.40;99.90;;;;;;5029838;28;20034;-80
2021/08/17 04:56:19;;;;;;;17.35;6.72;;;15.40;99.90;;;;;;5027078;28;20099;-79
2021/08/17 04:58:45;;;;;;;16.80;7.15;;;15.40;99.90;;;;;;5029620;28;20480;-79
2021/08/17 05:01:11;;;;;;;13.15;7.13;;;15.40;99.90;;;;;;5029367;28;20029;-82
2021/08/17 05:03:36;;;;;;;12.70;7.07;;;15.40;99.90;;;;;;5031160;28;20448;-80
2021/08/17 05:06:02;;;;;;;13.52;6.93;;;15.40;99.90;;;;;;5029820;28;20488;-81
2021/08/17 05:08:27;;;;;;;14.48;6.80;;;15.40;99.90;;;;;;5029651;28;20033;-81
2021/08/17 05:10:53;;;;;;;16.33;7.50;;;15.30;99.90;;;;;;5030952;28;20068;-80
2021/08/17 05:13:19;;;;;;;14.65;7.53;;;15.30;99.90;;;;;;5029405;28;20116;-84
2021/08/17 05:15:45;;;;;;;12.95;5.97;;;15.30;99.90;;;;;;5029408;28;20502;-81
2021/08/17 05:18:11;;;;;;;18.48;7.72;;;15.40;99.90;;;;;;5029967;28;20512;-80
2021/08/17 05:20:36;;;;;;;13.82;7.05;;;15.30;99.90;;;;;;5029107;28;21004;-80
2021/08/17 05:23:02;;;;;;;13.38;6.43;;;15.30;99.90;;;;;;5029196;28;20033;-85
2021/08/17 05:25:28;;;;;;;15.95;6.80;;;15.30;99.90;;;;;;5029828;28;20080;-85
2021/08/17 05:27:54;;;;;;;13.15;7.10;;;15.30;99.90;;;;;;5029277;28;20030;-81
2021/08/17 05:30:20;;;;;;;13.95;7.18;;;15.40;99.90;;;;;;5030969;28;20053;-80
2021/08/17 05:32:47;;;;;;;12.25;6.60;;;15.40;99.90;;;;;;5025921;28;20026;-82
2021/08/17 05:35:13;;;;;;;15.68;8.35;;;15.40;99.90;;;;;;5024341;28;20068;-85
2021/08/17 05:37:39;;;;;;;16.27;7.63;;;15.40;99.90;;;;;;5010799;28;20033;-81
2021/08/17 05:40:06;;;;;;;14.98;7.50;;;15.40;99.90;;;;;;5010826;28;20026;-81
2021/08/17 05:42:32;;;;;;;12.15;7.07;;;15.50;99.90;;;;;;5022257;28;20045;-82
2021/08/17 05:44:58;;;;;;;16.75;7.00;;;15.50;99.90;;;;;;5028965;28;20045;-81
2021/08/17 05:47:23;;;;;;;21.80;7.63;;;15.50;99.90;;;;;;5029461;28;20030;-81
2021/08/17 05:49:49;;;;;;;15.75;7.72;;;15.60;99.90;;;;;;5024502;28;20025;-81
2021/08/17 05:52:15;;;;;;;18.70;7.55;;;15.60;99.90;;;;;;5032039;28;20559;-82
2021/08/17 05:54:41;;;;;;;16.95;7.65;;;15.60;99.90;;;;;;5048414;28;20035;-81
2021/08/17 05:57:07;;;;;;;15.13;7.70;;;15.70;99.90;;;;;;5050812;28;20045;-81
2021/08/17 05:59:34;;;;;;;16.90;7.35;;;15.70;99.90;;;;;;5039235;28;20400;-81
2021/08/17 06:02:01;;;;;;;14.82;7.93;;;15.70;99.90;;;;;;5042720;28;20033;-81
2021/08/17 06:04:27;;;;;;;23.67;8.45;;;15.80;99.90;;;;;;5046568;28;20391;-84
2021/08/17 06:06:53;;;;;;;15.77;7.80;;;15.80;99.90;;;;;;5051480;28;20136;-84
2021/08/17 06:09:19;;;;;;;14.65;7.72;;;15.70;99.90;;;;;;5038224;28;20029;-81
2021/08/17 06:11:46;;;;;;;18.90;8.07;;;15.70;99.90;;;;;;5052251;28;20027;-86
2021/08/17 06:14:13;;;;;;;13.55;8.18;;;15.80;99.90;;;;;;5043122;28;20400;-84
2021/08/17 06:16:39;;;;;;;18.15;9.30;;;15.80;99.90;;;;;;5047332;28;20036;-81
2021/08/17 06:19:05;;;;;;;15.35;8.10;;;15.80;99.90;;;;;;5037196;28;20029;-81
2021/08/17 06:21:31;;;;;;;18.38;9.05;;;15.80;99.90;;;;;;5041512;28;20428;-81
2021/08/17 06:23:58;;;;;;;16.65;8.20;;;15.90;99.90;;;;;;5033275;28;20026;-84
2021/08/17 06:26:24;;;;;;;18.52;8.05;;;15.90;99.90;;;;;;5043215;28;20029;-82
2021/08/17 06:28:50;;;;;;;15.00;8.50;;;15.90;99.90;;;;;;5033715;28;20052;-80
2021/08/17 06:31:22;;;;;;;16.60;8.57;;;15.90;99.90;;;;;;5051941;28;20440;-79
2021/08/17 06:33:52;;;;;;;16.00;8.20;;;16.00;99.90;;;;;;5051394;28;20132;-79
2021/08/17 06:36:18;;;;;;;17.55;8.32;;;16.00;99.90;;;;;;5040155;28;20041;-79
2021/08/17 06:38:44;;;;;;;15.07;8.05;;;16.00;99.90;;;;;;5026899;28;20026;-83
2021/08/17 06:41:10;;;;;;;16.67;8.63;;;16.00;99.90;;;;;;5030956;28;20447;-84
2021/08/17 06:43:36;;;;;;;21.13;8.75;;;16.10;99.90;;;;;;5028311;28;20435;-80
2021/08/17 06:46:02;;;;;;;13.43;8.07;;;16.20;99.90;;;;;;5028591;28;20128;-83
2021/08/17 06:48:28;;;;;;;16.27;8.15;;;16.20;99.90;;;;;;5030787;28;20497;-84
2021/08/17 06:50:53;;;;;;;17.10;8.18;;;16.20;99.90;;;;;;5027458;28;20024;-80
2021/08/17 06:53:19;;;;;;;19.75;8.10;;;16.30;99.90;;;;;;5031344;28;20480;-84
2021/08/17 06:55:45;;;;;;;13.07;7.63;;;16.40;99.90;;;;;;5039478;28;20025;-84
2021/08/17 06:58:14;;;;;;;21.10;8.45;;;16.50;99.90;;;;;;5034409;28;20036;-80
2021/08/17 07:00:41;;;;;;;23.85;8.02;;;16.60;99.90;;;;;;5024920;28;20026;-82
2021/08/17 07:03:07;;;;;;;18.88;7.72;;;16.70;99.90;;;;;;5029363;28;20030;-80
2021/08/17 07:05:34;;;;;;;19.23;8.10;;;16.70;99.90;;;;;;5029911;28;20065;-83
2021/08/17 07:08:00;;;;;;;17.88;7.47;;;16.80;99.90;;;;;;5028622;28;20086;-81
2021/08/17 07:10:26;;;;;;;17.17;8.55;;;16.80;99.90;;;;;;5025806;28;20033;-82
2021/08/17 07:12:52;;;;;;;17.70;7.85;;;16.90;99.90;;;;;;5031275;28;20076;-80
2021/08/17 07:15:17;;;;;;;17.00;8.13;;;17.00;99.90;;;;;;5029674;28;20403;-83
2021/08/17 07:17:43;;;;;;;16.85;9.00;;;17.00;99.90;;;;;;5029783;28;20064;-80
2021/08/17 07:20:09;;;;;;;14.68;7.90;;;17.00;99.90;;;;;;5024159;28;20068;-81
2021/08/17 07:22:34;;;;;;;16.00;7.28;;;17.20;99.90;;;;;;5035558;28;20059;-79
2021/08/17 07:25:00;;;;;;;17.42;7.45;;;17.30;99.90;;;;;;5030240;28;20112;-81
2021/08/17 07:27:28;;;;;;;17.63;7.47;;;17.30;99.90;;;;;;5031341;28;20507;-81
2021/08/17 07:29:54;;;;;;;14.13;6.88;;;17.50;99.90;;;;;;5029767;28;20029;-82
2021/08/17 07:32:21;;;;;;;17.00;7.15;;;17.50;99.90;;;;;;5020880;28;20030;-83
2021/08/17 07:34:47;;;;;;;12.10;7.10;;;17.60;99.90;;;;;;5031261;28;20034;-83
2021/08/17 07:37:12;;;;;;;22.38;7.40;;;17.70;99.90;;;;;;5030441;28;20420;-81
2021/08/17 07:39:38;;;;;;;22.77;6.57;;;17.80;99.90;;;;;;5031095;28;20033;-82
2021/08/17 07:42:04;;;;;;;16.23;7.20;;;17.80;99.90;;;;;;5028291;28;20026;-86
2021/08/17 07:44:30;;;;;;;18.17;7.82;;;17.90;99.90;;;;;;5036612;28;20072;-82
2021/08/17 07:46:57;;;;;;;14.82;7.25;;;18.00;99.90;;;;;;5031086;28;20126;-82
2021/08/17 07:49:23;;;;;;;14.98;7.10;;;18.20;99.90;;;;;;5033168;28;20099;-81
2021/08/17 07:51:48;;;;;;;16.70;7.40;;;18.30;99.90;;;;;;5029836;28;20100;-82
2021/08/17 07:54:14;;;;;;;17.98;6.97;;;18.40;99.90;;;;;;5030976;28;20032;-83
2021/08/17 07:56:40;;;;;;;15.65;6.80;;;18.60;99.90;;;;;;5029425;28;20071;-80
2021/08/17 07:59:06;;;;;;;10.85;6.53;;;18.60;99.90;;;;;;5033900;28;20485;-82
2021/08/17 08:01:31;;;;;;;13.55;6.70;;;18.50;99.90;;;;;;5028563;28;20025;-83
2021/08/17 08:03:58;;;;;;;16.77;6.97;;;18.60;99.90;;;;;;5029471;28;20082;-84
2021/08/17 08:06:23;;;;;;;17.08;6.30;;;18.60;99.90;;;;;;5043255;28;20402;-84
2021/08/17 08:08:49;;;;;;;13.15;6.55;;;18.90;99.90;;;;;;5051468;28;20024;-89
2021/08/17 08:11:15;;;;;;;13.93;6.65;;;19.10;99.90;;;;;;5049578;28;20162;-81
2021/08/17 08:13:41;;;;;;;16.90;6.57;;;19.10;99.90;;;;;;5043137;28;20029;-86
2021/08/17 08:16:07;;;;;;;15.00;6.90;;;19.20;99.90;;;;;;5039045;28;20037;-88
2021/08/17 08:18:32;;;;;;;13.95;6.32;;;19.30;99.90;;;;;;5019373;28;20034;-86
2021/08/17 08:20:58;;;;;;;15.75;5.93;;;19.40;99.90;;;;;;5023340;28;20021;-83
2021/08/17 08:23:24;;;;;;;18.63;6.63;;;19.60;99.80;;;;;;5012669;28;20034;-81
2021/08/17 08:25:49;;;;;;;13.05;6.15;;;19.90;99.50;;;;;;5023876;28;20026;-85
2021/08/17 08:28:15;;;;;;;14.07;5.70;;;20.10;98.60;;;;;;5032466;28;20408;-82
2021/08/17 08:30:41;;;;;;;13.70;6.55;;;20.10;97.80;;;;;;5027704;28;20064;-82
2021/08/17 08:33:07;;;;;;;13.85;5.65;;;20.10;98.10;;;;;;5016952;28;20038;-87
2021/08/17 08:35:32;;;;;;;13.48;5.47;;;20.00;98.50;;;;;;5028351;28;20508;-82
2021/08/17 08:37:58;;;;;;;15.65;5.95;;;20.10;97.50;;;;;;5022944;28;20404;-87
2021/08/17 08:40:25;;;;;;;11.15;5.63;;;20.20;97.50;;;;;;5018403;28;20022;-81
2021/08/17 08:42:52;;;;;;;16.92;6.53;;;20.20;97.10;;;;;;5025630;28;20026;-82
2021/08/17 08:45:18;;;;;;;13.25;5.95;;;20.20;97.90;;;;;;5030666;28;20122;-81
2021/08/17 08:47:44;;;;;;;13.32;6.25;;;20.50;97.60;;;;;;5049419;28;20036;-86
2021/08/17 08:50:10;;;;;;;13.15;6.25;;;20.40;96.70;;;;;;5032289;28;20456;-85
2021/08/17 08:52:36;;;;;;;10.20;5.43;;;20.40;96.70;;;;;;5029486;28;20470;-85
2021/08/17 08:55:03;;;;;;;9.50;4.80;;;20.60;96.50;;;;;;5047395;28;20025;-85
2021/08/17 08:57:30;;;;;;;11.90;5.07;;;20.90;95.40;;;;;;5044560;28;20028;-82
2021/08/17 08:59:56;;;;;;;8.82;4.50;;;21.10;94.70;;;;;;5024442;28;20023;-87
2021/08/17 09:02:29;;;;;;;11.95;4.38;;;21.20;92.30;;;;;;5028780;28;20033;-82
2021/08/17 09:04:57;;;;;;;6.47;4.43;;;21.20;91.50;;;;;;5011616;28;20032;-84
2021/08/17 09:07:42;;;;;;;10.98;4.35;;;21.30;92.20;;;;;;5029210;28;20056;-89
2021/08/17 09:10:14;;;;;;;9.98;4.60;;;21.50;91.60;;;;;;5042274;28;20380;-87
2021/08/17 09:12:52;;;;;;;11.13;4.68;;;21.70;92.50;;;;;;5029223;28;20488;-88
2021/08/17 09:15:32;;;;;;;8.45;4.68;;;21.70;91.50;;;;;;5008760;28;20037;-84
2021/08/17 09:18:01;;;;;;;7.82;4.65;;;21.50;91.40;;;;;;5044096;28;20032;-87
2021/08/17 09:20:33;;;;;;;14.90;4.25;;;21.30;91.70;;;;;;5040117;28;20025;-83
2021/08/17 09:23:17;;;;;;;13.13;4.50;;;21.10;90.10;;;;;;5033374;28;20075;-83
2021/08/17 09:25:43;;;;;;;7.00;3.55;;;20.90;90.10;;;;;;5016086;28;20037;-84
2021/08/17 09:28:32;;;;;;;8.07;4.13;;;20.70;90.20;;;;;;5028380;28;20030;-83
2021/08/17 09:31:00;;;;;;;9.80;4.28;;;20.80;91.10;;;;;;5038567;28;20112;-90
2021/08/17 09:33:46;;;;;;;8.05;4.22;;;20.80;90.80;;;;;;5032682;28;20766;-84
2021/08/17 09:36:11;;;;;;;12.23;4.53;;;20.80;91.50;;;;;;5033702;28;20052;-84
2021/08/17 09:38:37;;;;;;;6.82;3.80;;;21.10;91.60;;;;;;5032924;28;20025;-86
2021/08/17 09:41:20;;;;;;;6.65;4.10;;;22.00;88.60;;;;;;5032661;28;20025;-88
2021/08/17 09:44:02;;;;;;;7.95;3.60;;;24.00;86.40;;;;;;5013521;28;20042;-89
2021/08/17 09:46:34;;;;;;;9.38;4.28;;;23.90;83.70;;;;;;5013495;28;20056;-90
2021/08/17 09:49:18;;;;;;;9.88;3.65;;;24.10;84.50;;;;;;5029997;28;20026;-89
2021/08/17 09:51:43;;;;;;;8.40;3.80;;;23.80;82.30;;;;;;5029044;28;20488;-89
2021/08/17 09:54:16;;;;;;;9.35;4.00;;;23.90;82.00;;;;;;5032632;28;20036;-89
2021/08/17 09:56:42;;;;;;;;;;;23.80;83.00;;;;;;5033738;28;20103;-87
2021/08/17 09:59:17;;;;;;;6.95;4.38;;;23.50;84.30;;;;;;5031764;28;19920;-86
2021/08/17 10:01:42;;;;;;;7.60;4.28;;;22.70;86.10;;;;;;5032839;28;20071;-88
2021/08/17 10:04:08;;;;;;;10.07;3.95;;;21.90;87.50;;;;;;5032132;28;20399;-82
2021/08/17 10:06:34;;;;;;;10.68;4.60;;;21.40;89.30;;;;;;5033085;28;20021;-85
2021/08/17 10:09:01;;;;;;;6.15;4.07;;;21.00;90.80;;;;;;5034026;28;20610;-90
2021/08/17 10:11:27;;;;;;;9.68;4.55;;;20.80;91.20;;;;;;5037386;28;20033;-87
2021/08/17 10:13:53;;;;;;;8.82;4.47;;;20.60;91.20;;;;;;5037872;28;20029;-86
2021/08/17 10:16:19;;;;;;;13.05;4.18;;;20.70;91.20;;;;;;5040193;28;20025;-85
2021/08/17 10:18:46;;;;;;;9.60;4.32;;;20.70;91.40;;;;;;5035068;28;20505;-90
2021/08/17 10:21:16;;;;;;;5.97;4.25;;;20.80;91.30;;;;;;5030084;28;20025;-89
2021/08/17 10:23:45;;;;;;;8.75;4.43;;;20.60;91.40;;;;;;5032797;28;20099;-84
2021/08/17 10:26:31;;;;;;;8.05;4.28;;;20.50;91.50;;;;;;5026413;28;20092;-87
2021/08/17 10:28:57;;;;;;;9.65;4.35;;;20.70;91.60;;;;;;5025108;28;20574;-89
2021/08/17 10:31:33;;;;;;;8.43;4.07;;;21.10;91.60;;;;;;5037795;28;20476;-87
2021/08/17 10:34:13;;;;;;;12.00;4.72;;;21.20;90.60;;;;;;5032055;28;20026;-90
2021/08/17 10:36:45;;;;;;;11.85;4.07;;;20.70;91.60;;;;;;5045990;28;20403;-81
2021/08/17 10:39:17;;;;;;;7.10;3.63;;;20.60;92.00;;;;;;5019213;28;20026;-83
2021/08/17 10:41:45;;;;;;;11.18;4.55;;;20.90;91.50;;;;;;5024628;28;20029;-88
2021/08/17 10:44:23;;;;;;;8.57;4.53;;;21.20;91.80;;;;;;5016866;28;20117;-89
2021/08/17 10:47:00;;;;;;;9.93;4.30;;;21.50;90.20;;;;;;5012499;28;20523;-88
2021/08/17 10:49:35;;;;;;;9.82;4.60;;;21.80;89.80;;;;;;5038846;28;20243;-89
2021/08/17 10:52:09;;;;;;;9.32;4.47;;;22.00;88.50;;;;;;5023683;28;20034;-82
2021/08/17 10:54:37;;;;;;;8.98;4.38;;;22.00;88.60;;;;;;5042506;28;20048;-89
2021/08/17 10:57:19;;;;;;;11.25;4.28;;;21.90;88.10;;;;;;5034760;28;20030;-88
2021/08/17 10:59:47;;;;;;;7.50;3.90;;;22.00;87.30;;;;;;5041621;28;20549;-83
2021/08/17 11:02:14;;;;;;;7.10;3.78;;;22.00;88.30;;;;;;5030083;28;20042;-89
2021/08/17 11:04:43;;;;;;;9.52;4.03;;;22.20;87.60;;;;;;5030884;28;20112;-89
2021/08/17 11:07:24;;;;;;;7.85;4.32;;;22.20;88.10;;;;;;5035347;28;20029;-90
2021/08/17 11:09:50;;;;;;;7.78;3.85;;;21.80;89.40;;;;;;5041065;28;20025;-90
2021/08/17 11:12:15;;;;;;;6.00;4.15;;;21.60;89.60;;;;;;5014615;28;20034;-88
2021/08/17 11:14:42;;;;;;;9.05;3.72;;;21.40;90.10;;;;;;5038404;28;20033;-89
2021/08/17 11:17:13;;;;;;;6.97;4.25;;;21.30;90.50;;;;;;5042922;28;20074;-81
2021/08/17 11:19:51;;;;;;;8.95;4.00;;;21.30;91.10;;;;;;5051060;28;20539;-89
2021/08/17 11:22:23;;;;;;;6.53;3.90;;;21.40;90.80;;;;;;5043840;28;20033;-83
2021/08/17 11:24:53;;;;;;;7.45;4.00;;;21.50;90.70;;;;;;5035698;28;20017;-83
2021/08/17 11:27:22;;;;;;;7.05;4.18;;;21.70;90.80;;;;;;5040524;28;20025;-90
2021/08/17 11:29:47;;;;;;;8.60;4.10;;;21.40;91.00;;;;;;5031141;28;20030;-90
2021/08/17 11:32:28;;;;;;;9.23;4.25;;;21.30;91.20;;;;;;5043700;28;20028;-88
2021/08/17 11:34:56;;;;;;;10.93;4.18;;;21.40;91.10;;;;;;5022848;28;20447;-89
2021/08/17 11:37:22;;;;;;;11.18;4.45;;;21.40;91.20;;;;;;5045781;28;20070;-83
2021/08/17 11:39:51;;;;;;;7.18;4.18;;;21.40;91.10;;;;;;5029614;28;20041;-89
2021/08/17 11:42:21;;;;;;;8.80;4.00;;;21.30;91.20;;;;;;5027651;28;20021;-83
2021/08/17 11:45:09;;;;;;;11.30;4.35;;;21.00;91.80;;;;;;5018961;28;20501;-89
2021/08/17 11:47:36;;;;;;;6.47;3.92;;;21.00;92.00;;;;;;5027082;28;20025;-86
2021/08/17 11:50:05;;;;;;;9.00;4.10;;;21.20;92.10;;;;;;5029886;28;20096;-84
2021/08/17 11:52:39;;;;;;;8.13;4.70;;;21.10;91.30;;;;;;5034612;28;20516;-85
2021/08/17 11:55:15;;;;;;;16.05;4.13;;;21.00;91.60;;;;;;5030961;28;20026;-87
2021/08/17 11:57:54;;;;;;;6.47;3.97;;;21.10;92.20;;;;;;5037832;28;20440;-84
2021/08/17 12:00:22;;;;;;;8.13;4.22;;;21.20;91.70;;;;;;5030757;28;20022;-84
2021/08/17 12:02:52;;;;;;;8.90;4.10;;;21.40;91.50;;;;;;5025296;28;20026;-87
2021/08/17 12:05:19;;;;;;;9.35;3.85;;;21.60;90.60;;;;;;5029270;28;20041;-82
2021/08/17 12:07:47;;;;;;;6.80;4.05;;;21.70;90.00;;;;;;5026475;28;20112;-87
2021/08/17 12:10:33;;;;;;;8.48;3.50;;;21.60;90.40;;;;;;5029197;28;20036;-86
2021/08/17 12:13:04;;;;;;;9.80;3.75;;;21.80;90.60;;;;;;5025073;28;20029;-86
2021/08/17 12:15:45;;;;;;;11.45;4.07;;;22.30;90.00;;;;;;5035143;28;20032;-88
2021/08/17 12:18:17;;;;;;;9.73;3.97;;;22.50;89.20;;;;;;5050496;28;20029;-88
2021/08/17 12:20:49;;;;;;;8.82;4.22;;;22.70;88.40;;;;;;5030970;28;20021;-88
2021/08/17 12:23:18;;;;;;;9.55;3.90;;;23.20;87.40;;;;;;5030619;28;20404;-86
2021/08/17 12:25:44;;;;;;;5.85;3.63;;;23.10;87.40;;;;;;5013709;28;20025;-85
2021/08/17 12:28:23;;;;;;;5.55;3.80;;;23.00;89.40;;;;;;5026432;28;20060;-87
2021/08/17 12:30:52;;;;;;;8.43;3.80;;;23.00;88.00;;;;;;5032955;28;20116;-86
2021/08/17 12:33:28;;;;;;;7.57;4.10;;;22.60;89.20;;;;;;5035262;28;20033;-86
2021/08/17 12:35:56;;;;;;;10.23;3.85;;;22.50;90.80;;;;;;5050413;28;20128;-85
2021/08/17 12:38:22;;;;;;;7.93;4.22;;;22.20;90.60;;;;;;5029129;28;20050;-84
2021/08/17 12:40:53;;;;;;;7.00;4.15;;;21.80;90.60;;;;;;5026234;28;20100;-88